Flight Number: EUR3071 Duration: 12:00
Departure: Rio de Janeiro (SBGL) at 18:30 Distance: 4985 Nm
Arrival: Gatwick Airport (EGKK) at 06:30 Equipment: A340

Weather Information
Galeao, Brazil (SBGL) 22-49S 043-15W 42M Feb 24, 2018 - 01:00 AM EST / 2018.02.24 0600 UTC
Wind: from the ENE (060 degrees) at 2 MPH (2 KT):0
Visibility: greater than 7 mile(s):0
Sky conditions: mostly clear Temperature: 73 F (23 C) Dew Point: 71 F (22 C) Relative Humidity: 94% Pressure (altimeter): 29.94 in. Hg (1014 hPa)
ob: SBGL 240600Z 06002KT 9999 FEW005 23/22 Q1014 cycle: 6
Sunrise: 08:49 Sunset: 21:22 (UTC)

London / Gatwick Airport, United Kingdom (EGKK) 51-09N 000-11W 0M Feb 24, 2018 - 12:50 AM EST / 2018.02.24 0550 UTC
Wind: from the ENE (070 degrees) at 9 MPH (8 KT):0
Visibility: greater than 7 mile(s):0 Temperature: 26 F (-3 C)
Windchill: 17 F (-8 C):1 Dew Point: 23 F (-5 C) Relative Humidity: 86% Pressure (altimeter): 30.09 in. Hg (1019 hPa)
ob: EGKK 240550Z 07008KT CAVOK M03/M05 Q1019 cycle: 6
Sunrise: 06:58 Sunset: 17:29 (UTC)

TAF:2018/02/24 06:19 TAF EGKK 240454Z 2406/2512 08012KT 9999 SCT030 TEMPO 2406/2410 8000 PROB30 TEMPO 2412/2421 09015G25KT

Previous Pireps for this route
Date Aircraft Flight time Fuel used Landing rate On time
2015-06-23B74710.31283502-12Charter
2015-06-26B74711.46301897-93Charter
(pireps marked green are flown by you)

Route map